Time;durP1;ratioP1;P1;durP2;ratioP2;P2;SDS_P1;SDS_P2;PMS_P1;PMS_P2;Temp;Humidity;BMP_temperature;BMP_pressure;BME280_temperature;BME280_humidity;BME280_pressure;Samples;Min_cycle;Max_cycle;Signal;HPM_P1;HPM_P2
2023/01/11 00:01:02;;;;;;;11.47;3.43;;;8.40;99.90;;;;;;5051967;28;20190;-76
2023/01/11 00:03:31;;;;;;;12.37;3.63;;;8.40;99.90;;;;;;5056611;28;20213;-77
2023/01/11 00:05:59;;;;;;;12.43;3.87;;;8.40;99.90;;;;;;5042298;28;20480;-78
2023/01/11 00:08:27;;;;;;;12.50;3.83;;;8.50;99.90;;;;;;5057909;28;20228;-76
2023/01/11 00:10:54;;;;;;;13.57;3.77;;;8.50;99.90;;;;;;5054682;28;20215;-77
2023/01/11 00:13:21;;;;;;;12.73;3.70;;;8.60;99.90;;;;;;5051700;28;20512;-77
2023/01/11 00:15:48;;;;;;;14.27;3.43;;;8.60;99.90;;;;;;5046632;28;20220;-77
2023/01/11 00:18:15;;;;;;;10.90;3.53;;;8.60;99.90;;;;;;5050690;28;20268;-78
2023/01/11 00:20:43;;;;;;;12.27;3.50;;;8.70;99.90;;;;;;5057733;28;20228;-77
2023/01/11 00:23:10;;;;;;;10.93;3.23;;;8.70;99.90;;;;;;5031840;28;20561;-77
2023/01/11 00:25:38;;;;;;;10.83;3.17;;;8.80;99.90;;;;;;5026764;28;20207;-77
2023/01/11 00:28:06;;;;;;;11.63;3.40;;;8.80;99.90;;;;;;5051016;28;20236;-78
2023/01/11 00:30:34;;;;;;;11.17;3.53;;;8.80;99.90;;;;;;5038683;28;20216;-78
2023/01/11 00:33:01;;;;;;;9.40;3.33;;;8.80;99.90;;;;;;5030958;28;20209;-78
2023/01/11 00:35:29;;;;;;;8.83;2.93;;;8.90;99.90;;;;;;5059714;28;20211;-78
2023/01/11 00:37:58;;;;;;;9.83;3.13;;;8.90;99.90;;;;;;5051552;28;20244;-76
2023/01/11 00:40:25;;;;;;;10.67;3.40;;;8.90;99.90;;;;;;5057198;28;20225;-76
2023/01/11 00:48:21;;;;;;;10.77;3.23;;;9.00;99.90;;;;;;5030651;28;20377;-77
2023/01/11 00:50:48;;;;;;;8.57;3.03;;;9.00;99.90;;;;;;5046175;28;20551;-77
2023/01/11 00:53:18;;;;;;;9.80;3.20;;;9.00;99.90;;;;;;5033966;28;20277;-77
2023/01/11 00:55:45;;;;;;;8.03;2.80;;;9.00;99.90;;;;;;5062100;28;20207;-76
2023/01/11 00:58:12;;;;;;;11.10;3.13;;;9.10;99.90;;;;;;5035861;28;20254;-77
2023/01/11 01:00:39;;;;;;;10.87;3.10;;;9.10;99.90;;;;;;5055316;28;20228;-76
2023/01/11 01:03:06;;;;;;;8.20;2.87;;;9.10;99.90;;;;;;5059132;22;20328;-78
2023/01/11 01:05:33;;;;;;;8.17;2.80;;;9.10;99.90;;;;;;5037228;28;20291;-78
2023/01/11 01:08:00;;;;;;;8.00;2.80;;;9.10;99.90;;;;;;5029279;28;20251;-78
2023/01/11 01:10:28;;;;;;;9.47;3.00;;;9.20;99.90;;;;;;5034834;28;20213;-78
2023/01/11 01:15:56;;;;;;;9.10;2.87;;;9.20;99.90;;;;;;4927685;29;20215;-78
2023/01/11 01:18:23;;;;;;;10.03;3.07;;;9.10;99.90;;;;;;5003711;28;20757;-78
2023/01/11 01:20:50;;;;;;;9.20;3.07;;;9.20;99.90;;;;;;5018851;28;20264;-77
2023/01/11 01:23:17;;;;;;;9.07;3.00;;;9.20;99.90;;;;;;5019365;28;20268;-78
2023/01/11 01:25:45;;;;;;;9.40;2.87;;;9.20;99.90;;;;;;5020496;28;20197;-77
2023/01/11 01:28:12;;;;;;;9.77;3.10;;;9.20;99.90;;;;;;5014565;28;20210;-77
2023/01/11 01:30:40;;;;;;;11.57;3.77;;;9.20;99.90;;;;;;5024481;28;20200;-77
2023/01/11 01:33:06;;;;;;;8.87;2.83;;;9.30;99.90;;;;;;5011093;28;20245;-77
2023/01/11 01:35:34;;;;;;;7.53;2.63;;;9.30;99.90;;;;;;5025345;28;20212;-77
2023/01/11 01:38:01;;;;;;;8.67;2.83;;;9.30;99.90;;;;;;5016552;28;20202;-77
2023/01/11 01:40:28;;;;;;;7.20;2.50;;;9.30;99.90;;;;;;5025486;28;20229;-78
2023/01/11 01:42:56;;;;;;;9.70;2.90;;;9.30;99.90;;;;;;5018551;28;20221;-77
2023/01/11 01:45:24;;;;;;;8.23;2.83;;;9.30;99.90;;;;;;5024670;28;20584;-77
2023/01/11 01:47:55;;;;;;;9.73;2.90;;;9.40;99.90;;;;;;5021200;28;20225;-77
2023/01/11 01:50:25;;;;;;;9.63;2.80;;;9.40;99.90;;;;;;5024442;28;20233;-77
2023/01/11 01:52:59;;;;;;;8.27;2.80;;;9.50;99.90;;;;;;5015133;28;20508;-78
2023/01/11 01:55:31;;;;;;;10.03;3.27;;;9.40;99.90;;;;;;5017616;28;20252;-77
2023/01/11 01:58:02;;;;;;;6.63;2.50;;;9.50;99.90;;;;;;5014708;28;20202;-77
2023/01/11 02:00:29;;;;;;;6.87;2.63;;;9.50;99.90;;;;;;5024732;28;20229;-77
2023/01/11 02:02:57;;;;;;;22.57;3.97;;;9.50;99.90;;;;;;5554842;22;20248;-76
2023/01/11 02:05:24;;;;;;;8.17;2.73;;;9.50;99.90;;;;;;5050879;28;20235;-78
2023/01/11 02:07:53;;;;;;;6.67;2.37;;;9.50;99.90;;;;;;5054205;28;20214;-76
2023/01/11 02:10:22;;;;;;;9.47;2.87;;;9.50;99.90;;;;;;5051997;28;20248;-76
2023/01/11 02:12:52;;;;;;;9.57;3.07;;;9.40;99.90;;;;;;5054698;28;20228;-78
2023/01/11 02:15:23;;;;;;;10.33;3.33;;;9.40;99.90;;;;;;5053064;28;20208;-77
2023/01/11 02:17:50;;;;;;;8.20;2.93;;;9.40;99.90;;;;;;5092574;22;20234;-75
2023/01/11 02:20:35;;;;;;;7.20;2.20;;;9.20;99.90;;;;;;5087072;28;20226;-76
2023/01/11 02:23:35;;;;;;;5.90;2.20;;;9.20;99.90;;;;;;5075761;28;20214;-76
2023/01/11 02:26:38;;;;;;;6.73;2.60;;;9.10;99.90;;;;;;5073851;28;20625;-76
2023/01/11 02:29:12;;;;;;;7.37;2.87;;;9.10;99.90;;;;;;5055017;28;20217;-76
2023/01/11 02:31:44;;;;;;;5.53;2.17;;;9.10;99.90;;;;;;5034159;28;20200;-76
2023/01/11 02:34:32;;;;;;;7.70;2.43;;;9.00;99.90;;;;;;5034347;28;20208;-77
2023/01/11 02:37:09;;;;;;;6.33;2.60;;;9.00;99.90;;;;;;5053795;28;20316;-76
2023/01/11 02:39:45;;;;;;;5.50;2.43;;;9.10;99.90;;;;;;5052367;28;20647;-76
2023/01/11 02:45:19;;;;;;;8.13;2.93;;;9.10;99.90;;;;;;5060214;28;20717;-76
2023/01/11 02:47:51;;;;;;;7.23;2.73;;;9.10;99.90;;;;;;5027651;28;20593;-76
2023/01/11 02:50:22;;;;;;;7.17;2.53;;;9.10;99.90;;;;;;5057750;28;20203;-76
2023/01/11 02:52:58;;;;;;;5.80;2.47;;;9.20;99.90;;;;;;5069375;28;20204;-76
2023/01/11 02:55:29;;;;;;;6.00;2.50;;;9.20;99.90;;;;;;5049404;28;20226;-76
2023/01/11 02:58:01;;;;;;;5.53;2.40;;;9.20;99.90;;;;;;5057520;28;20221;-76
2023/01/11 03:00:29;;;;;;;5.60;2.10;;;9.30;99.90;;;;;;5066326;28;20252;-76
2023/01/11 03:03:07;;;;;;;6.47;2.50;;;9.30;99.90;;;;;;5053002;28;20205;-76
2023/01/11 03:05:37;;;;;;;8.27;2.70;;;9.30;99.90;;;;;;5055963;28;20223;-76
2023/01/11 03:08:15;;;;;;;7.03;2.40;;;9.30;99.90;;;;;;5028563;28;20791;-76
2023/01/11 03:10:56;;;;;;;4.90;2.23;;;9.30;99.90;;;;;;5050992;28;20275;-76
2023/01/11 03:13:30;;;;;;;5.90;2.23;;;9.30;99.90;;;;;;5055086;28;20208;-76
2023/01/11 03:16:25;;;;;;;6.47;2.40;;;9.30;99.90;;;;;;5061946;28;20192;-77
2023/01/11 03:18:58;;;;;;;6.43;2.70;;;9.30;99.90;;;;;;5046525;28;20204;-76
2023/01/11 03:21:41;;;;;;;6.10;2.50;;;9.40;99.90;;;;;;5061177;28;20247;-76
2023/01/11 03:24:16;;;;;;;6.07;2.60;;;9.40;99.90;;;;;;5072491;28;20215;-77
2023/01/11 03:26:53;;;;;;;6.43;2.33;;;9.40;99.90;;;;;;5057853;28;20203;-77
2023/01/11 03:29:28;;;;;;;6.40;2.70;;;9.50;99.90;;;;;;5051815;28;20200;-77
2023/01/11 03:32:08;;;;;;;6.77;2.43;;;9.50;99.90;;;;;;5052132;28;20201;-77
2023/01/11 03:34:40;;;;;;;7.33;2.80;;;9.50;99.90;;;;;;5060192;28;20751;-77
2023/01/11 03:37:12;;;;;;;5.57;2.60;;;9.40;99.90;;;;;;5061094;28;20237;-76
2023/01/11 03:39:45;;;;;;;6.80;3.07;;;9.30;99.90;;;;;;5053110;28;20208;-77
2023/01/11 03:42:15;;;;;;;6.30;2.77;;;9.30;99.90;;;;;;5037042;28;20665;-76
2023/01/11 03:44:45;;;;;;;8.00;3.20;;;9.30;99.90;;;;;;5043756;28;20213;-75
2023/01/11 03:47:15;;;;;;;8.20;3.10;;;9.20;99.90;;;;;;5048915;28;20231;-75
2023/01/11 03:49:45;;;;;;;8.63;3.33;;;9.20;99.90;;;;;;5055041;28;20216;-75
2023/01/11 03:52:16;;;;;;;4.83;2.50;;;9.20;99.90;;;;;;5055522;28;20287;-76
2023/01/11 03:54:44;;;;;;;7.00;2.90;;;9.20;99.90;;;;;;5059706;28;20206;-75
2023/01/11 03:57:15;;;;;;;7.87;3.03;;;9.10;99.90;;;;;;5053488;28;20228;-75
2023/01/11 03:59:42;;;;;;;7.13;3.03;;;9.20;99.90;;;;;;5047500;28;20208;-74
2023/01/11 04:02:17;;;;;;;7.60;3.17;;;9.20;99.90;;;;;;5052442;28;20220;-75
2023/01/11 04:04:44;;;;;;;6.63;2.90;;;9.20;99.90;;;;;;5057350;28;20208;-74
2023/01/11 04:07:11;;;;;;;5.97;2.87;;;9.10;99.90;;;;;;5048238;28;20225;-74
2023/01/11 04:09:38;;;;;;;6.77;2.80;;;9.20;99.90;;;;;;5050009;28;20212;-74
2023/01/11 04:12:06;;;;;;;8.43;3.33;;;9.20;99.90;;;;;;5055265;28;20197;-75
2023/01/11 04:14:33;;;;;;;5.67;2.30;;;9.20;99.90;;;;;;5060583;28;20579;-75
2023/01/11 04:17:00;;;;;;;6.40;2.83;;;9.20;99.90;;;;;;5057005;28;20235;-74
2023/01/11 04:19:28;;;;;;;8.27;3.33;;;9.20;99.90;;;;;;5030566;28;20209;-74
2023/01/11 04:21:55;;;;;;;7.13;2.90;;;9.30;99.90;;;;;;5057921;28;20227;-75
2023/01/11 04:24:22;;;;;;;6.17;2.60;;;9.30;99.90;;;;;;5054119;28;20204;-74
2023/01/11 04:26:49;;;;;;;7.07;2.90;;;9.30;99.90;;;;;;5051214;28;20225;-74
2023/01/11 04:29:16;;;;;;;7.77;3.40;;;9.30;99.90;;;;;;5049377;28;20212;-74
2023/01/11 04:31:43;;;;;;;5.40;2.67;;;9.40;99.90;;;;;;5028894;28;20204;-75
2023/01/11 04:34:11;;;;;;;7.00;2.93;;;9.40;99.90;;;;;;5068938;28;20209;-74
2023/01/11 04:36:40;;;;;;;8.00;3.23;;;9.40;99.90;;;;;;5077398;28;20211;-76
2023/01/11 04:39:09;;;;;;;7.53;2.90;;;9.50;99.90;;;;;;5043166;28;20205;-74
2023/01/11 04:44:20;;;;;;;8.37;3.30;;;9.50;99.90;;;;;;5051424;28;20790;-74
2023/01/11 04:46:47;;;;;;;7.40;3.30;;;9.50;99.90;;;;;;5065873;28;20223;-75
2023/01/11 04:49:15;;;;;;;5.13;2.47;;;9.50;99.90;;;;;;5031305;28;20713;-74
2023/01/11 04:51:43;;;;;;;8.40;3.40;;;9.60;99.90;;;;;;5047227;28;20204;-74
2023/01/11 04:54:10;;;;;;;9.80;3.33;;;9.60;99.90;;;;;;5048144;28;20201;-74
2023/01/11 04:56:37;;;;;;;6.00;2.60;;;9.70;99.90;;;;;;5058505;28;20204;-74
2023/01/11 04:59:04;;;;;;;10.20;3.60;;;9.70;99.90;;;;;;5058893;28;20201;-74
2023/01/11 05:01:31;;;;;;;7.77;3.30;;;9.70;99.90;;;;;;5067115;28;20712;-74
2023/01/11 05:03:58;;;;;;;7.07;3.00;;;9.70;99.90;;;;;;5059672;28;20207;-74
2023/01/11 05:06:25;;;;;;;10.23;3.23;;;9.70;99.90;;;;;;5051338;28;20212;-74
2023/01/11 05:08:53;;;;;;;6.07;2.80;;;9.80;99.90;;;;;;5057814;28;20298;-74
2023/01/11 05:11:20;;;;;;;10.30;3.43;;;9.80;99.90;;;;;;5056366;28;20212;-75
2023/01/11 05:13:47;;;;;;;7.77;3.30;;;9.80;99.90;;;;;;5057725;28;20204;-74
2023/01/11 05:16:16;;;;;;;6.77;2.90;;;9.80;99.90;;;;;;5039432;28;20200;-74
2023/01/11 05:18:45;;;;;;;10.03;3.80;;;9.90;99.90;;;;;;5054334;28;20362;-74
2023/01/11 05:21:14;;;;;;;7.27;3.13;;;9.90;99.90;;;;;;5049045;28;20229;-74
2023/01/11 05:23:42;;;;;;;12.63;4.20;;;9.90;99.90;;;;;;5058537;28;20562;-75
2023/01/11 05:26:12;;;;;;;7.47;3.73;;;9.90;99.90;;;;;;5051528;28;20300;-74
2023/01/11 05:28:39;;;;;;;9.53;4.13;;;9.90;99.90;;;;;;5030497;28;20263;-74
2023/01/11 05:31:06;;;;;;;13.47;5.07;;;10.00;99.90;;;;;;5058229;28;20199;-74
2023/01/11 05:33:33;;;;;;;11.13;4.33;;;10.00;99.90;;;;;;5051829;28;20208;-75
2023/01/11 05:36:01;;;;;;;9.70;4.30;;;10.00;99.90;;;;;;5058172;28;20222;-76
2023/01/11 05:38:28;;;;;;;9.17;4.23;;;10.00;99.90;;;;;;5054459;28;20224;-76
2023/01/11 05:40:56;;;;;;;9.77;4.57;;;10.00;99.90;;;;;;5053090;28;20225;-75
2023/01/11 05:43:25;;;;;;;12.90;5.07;;;10.10;99.90;;;;;;5053478;28;20200;-74
2023/01/11 05:45:51;;;;;;;10.27;4.53;;;10.10;99.90;;;;;;5061981;28;20209;-74
2023/01/11 05:48:18;;;;;;;8.93;4.50;;;10.10;99.90;;;;;;5071807;28;20244;-74
2023/01/11 05:50:50;;;;;;;9.00;3.57;;;10.10;99.90;;;;;;5035648;28;20196;-75
2023/01/11 05:53:17;;;;;;;9.37;4.37;;;10.10;99.90;;;;;;5060708;28;20216;-75
2023/01/11 05:55:52;;;;;;;8.60;3.83;;;10.10;99.90;;;;;;5056305;28;20200;-75
2023/01/11 05:58:19;;;;;;;8.90;4.03;;;10.10;99.90;;;;;;5061139;28;20224;-76
2023/01/11 06:00:49;;;;;;;10.10;4.20;;;10.20;99.90;;;;;;5048830;28;20225;-76
2023/01/11 06:03:16;;;;;;;10.10;4.60;;;10.20;99.90;;;;;;5063453;28;20204;-75
2023/01/11 06:05:43;;;;;;;11.60;4.67;;;10.20;99.90;;;;;;5048662;28;20704;-76
2023/01/11 06:08:10;;;;;;;9.37;4.47;;;10.20;99.90;;;;;;5040941;28;20217;-74
2023/01/11 06:10:37;;;;;;;8.07;3.57;;;10.20;99.90;;;;;;5054859;28;20213;-75
2023/01/11 06:15:50;;;;;;;8.93;3.97;;;10.20;99.90;;;;;;5038563;28;20200;-75
2023/01/11 06:18:17;;;;;;;9.13;4.40;;;10.30;99.90;;;;;;5042115;28;20229;-74
2023/01/11 06:20:48;;;;;;;8.03;3.60;;;10.30;99.90;;;;;;5064237;28;20215;-73
2023/01/11 06:23:15;;;;;;;9.77;4.27;;;10.30;99.90;;;;;;5056816;28;20250;-74
2023/01/11 06:25:42;;;;;;;9.57;4.10;;;;;;;;;;5063532;28;20197;-75
2023/01/11 06:28:09;;;;;;;10.97;3.97;;;10.40;99.90;;;;;;5059561;28;20701;-74
2023/01/11 06:30:36;;;;;;;10.93;4.40;;;10.30;99.90;;;;;;5055891;28;20204;-75
2023/01/11 06:33:05;;;;;;;10.00;4.50;;;10.30;99.90;;;;;;5042472;28;20208;-75
2023/01/11 06:35:33;;;;;;;8.73;4.07;;;10.40;99.90;;;;;;5058024;28;20247;-75
2023/01/11 06:38:00;;;;;;;8.57;3.83;;;10.40;99.90;;;;;;5055188;28;20734;-74
2023/01/11 06:40:27;;;;;;;9.03;4.40;;;10.40;99.90;;;;;;5064409;28;20294;-75
2023/01/11 06:42:54;;;;;;;10.97;3.53;;;10.40;99.90;;;;;;5057202;28;20603;-72
2023/01/11 06:45:21;;;;;;;12.03;4.00;;;10.50;99.90;;;;;;5056351;28;20209;-72
2023/01/11 06:47:48;;;;;;;11.20;3.90;;;10.50;99.90;;;;;;5055718;28;20220;-72
2023/01/11 06:50:17;;;;;;;10.63;4.37;;;10.50;99.90;;;;;;5034796;28;20308;-72
2023/01/11 06:52:51;;;;;;;9.40;3.73;;;10.50;99.90;;;;;;5054359;28;20207;-72
2023/01/11 06:55:18;;;;;;;8.87;3.80;;;10.50;99.90;;;;;;5032808;28;20204;-72
2023/01/11 06:57:45;;;;;;;10.70;3.60;;;10.60;99.90;;;;;;5063332;28;20739;-73
2023/01/11 07:00:13;;;;;;;11.83;2.80;;;10.60;99.90;;;;;;5069537;28;20200;-73
2023/01/11 07:02:40;;;;;;;7.50;3.00;;;10.70;99.90;;;;;;5039187;28;20224;-72
2023/01/11 07:05:08;;;;;;;7.60;2.93;;;10.70;99.90;;;;;;5069556;28;20684;-72
2023/01/11 07:07:36;;;;;;;8.67;2.83;;;10.70;99.90;;;;;;5059891;28;20311;-72
2023/01/11 07:10:05;;;;;;;8.30;3.20;;;10.80;99.90;;;;;;5065160;28;20267;-73
2023/01/11 07:12:33;;;;;;;8.10;2.90;;;10.80;99.90;;;;;;5058643;28;20210;-73
2023/01/11 07:15:00;;;;;;;9.00;3.50;;;10.90;99.90;;;;;;5052484;28;20287;-72
2023/01/11 07:17:26;;;;;;;8.27;3.50;;;10.90;99.90;;;;;;5035870;28;20237;-73
2023/01/11 07:19:53;;;;;;;12.03;4.10;;;11.00;99.90;;;;;;5051419;28;20652;-74
2023/01/11 07:22:21;;;;;;;7.90;3.07;;;11.00;99.90;;;;;;5036719;28;20224;-73
2023/01/11 07:24:49;;;;;;;9.77;4.10;;;11.00;99.90;;;;;;5051021;28;20201;-74
2023/01/11 07:27:18;;;;;;;8.20;3.70;;;11.10;99.90;;;;;;5053452;28;20248;-74
2023/01/11 07:29:45;;;;;;;8.67;4.00;;;11.10;99.90;;;;;;5055161;28;20208;-74
2023/01/11 07:32:12;;;;;;;8.47;4.10;;;11.20;99.90;;;;;;5057583;28;20519;-74
2023/01/11 07:34:40;;;;;;;10.90;5.20;;;11.20;99.90;;;;;;5050009;28;20204;-74
2023/01/11 07:37:08;;;;;;;11.57;5.33;;;11.20;99.90;;;;;;5055124;28;20232;-72
2023/01/11 07:39:35;;;;;;;10.90;5.17;;;11.30;99.90;;;;;;5054932;28;20237;-73
2023/01/11 07:44:48;;;;;;;9.63;4.93;;;11.40;99.90;;;;;;5045681;28;20209;-75
2023/01/11 07:47:15;;;;;;;11.13;5.53;;;11.30;99.90;;;;;;5051175;28;20221;-76
2023/01/11 07:49:42;;;;;;;11.90;5.20;;;11.40;99.90;;;;;;5048971;28;20214;-75
2023/01/11 07:52:09;;;;;;;10.60;4.40;;;11.40;99.90;;;;;;5060077;28;20192;-76
2023/01/11 07:54:36;;;;;;;8.83;4.80;;;11.40;99.90;;;;;;5055007;28;20219;-79
2023/01/11 07:57:04;;;;;;;8.90;4.63;;;11.40;99.90;;;;;;5061288;28;20232;-75
2023/01/11 07:59:31;;;;;;;9.47;4.23;;;11.50;99.90;;;;;;5061704;28;20205;-76
2023/01/11 08:01:58;;;;;;;10.00;4.53;;;11.50;99.90;;;;;;5065622;28;20219;-75
2023/01/11 08:04:25;;;;;;;10.73;4.93;;;11.50;99.90;;;;;;5058574;28;20227;-75
2023/01/11 08:06:52;;;;;;;14.60;5.70;;;11.50;99.90;;;;;;5056147;28;20537;-76
2023/01/11 08:09:19;;;;;;;11.67;5.03;;;11.50;99.90;;;;;;5060506;28;20213;-75
2023/01/11 08:14:42;;;;;;;11.23;5.10;;;11.60;99.90;;;;;;5055580;28;20304;-75
2023/01/11 08:17:11;;;;;;;13.73;5.50;;;11.60;99.90;;;;;;5032604;28;20263;-75
2023/01/11 08:19:38;;;;;;;13.17;6.63;;;11.60;99.90;;;;;;5048329;28;20216;-76
2023/01/11 08:22:06;;;;;;;12.30;6.00;;;11.60;99.90;;;;;;5053548;28;20228;-76
2023/01/11 08:24:33;;;;;;;15.10;6.33;;;11.60;99.90;;;;;;5048351;28;20205;-75
2023/01/11 08:27:00;;;;;;;14.13;5.90;;;11.60;99.90;;;;;;5044908;28;20666;-77
2023/01/11 08:29:27;;;;;;;14.23;6.00;;;11.70;99.90;;;;;;5042844;28;20205;-76
2023/01/11 08:31:56;;;;;;;10.80;5.17;;;11.70;99.90;;;;;;5047746;28;20213;-76
2023/01/11 08:34:23;;;;;;;9.50;3.47;;;11.70;99.90;;;;;;5056946;28;20205;-76
2023/01/11 08:36:50;;;;;;;12.03;3.73;;;11.70;99.90;;;;;;5055301;28;20232;-75
2023/01/11 08:39:16;;;;;;;10.13;3.57;;;11.60;99.90;;;;;;5063690;28;20211;-75
2023/01/11 08:41:44;;;;;;;8.97;3.57;;;11.60;99.90;;;;;;5051398;28;20229;-75
2023/01/11 08:44:11;;;;;;;10.13;3.10;;;11.60;99.90;;;;;;5040743;28;20235;-76
2023/01/11 08:46:38;;;;;;;14.67;3.40;;;11.60;99.90;;;;;;5040813;28;20616;-75
2023/01/11 08:49:10;;;;;;;10.93;3.57;;;11.60;99.90;;;;;;5041790;28;20662;-75
2023/01/11 08:51:38;;;;;;;22.50;4.13;;;11.60;99.90;;;;;;5048545;28;20311;-75
2023/01/11 08:54:08;;;;;;;14.83;3.77;;;11.60;99.90;;;;;;5058994;28;20192;-74
2023/01/11 08:56:35;;;;;;;13.33;4.07;;;11.50;99.90;;;;;;5054680;28;20205;-75
2023/01/11 08:59:03;;;;;;;14.27;3.70;;;11.50;99.90;;;;;;5051451;28;20707;-74
2023/01/11 09:01:30;;;;;;;11.77;3.13;;;11.50;99.90;;;;;;5053087;28;20230;-74
2023/01/11 09:03:58;;;;;;;18.53;4.07;;;11.50;99.90;;;;;;5052760;28;20211;-74
2023/01/11 09:06:27;;;;;;;11.47;3.33;;;11.60;99.90;;;;;;5041385;28;20216;-76
2023/01/11 09:08:54;;;;;;;11.77;3.20;;;11.60;99.90;;;;;;5051097;28;20553;-74
2023/01/11 09:14:06;;;;;;;11.80;3.70;;;11.50;99.90;;;;;;5044440;28;20192;-75
2023/01/11 09:16:34;;;;;;;11.97;3.60;;;11.50;99.90;;;;;;5048852;28;20280;-75
2023/01/11 09:19:01;;;;;;;11.90;3.57;;;11.50;99.90;;;;;;5062539;28;20204;-75
2023/01/11 09:21:30;;;;;;;13.80;4.60;;;11.50;99.90;;;;;;5048762;28;20204;-75
2023/01/11 09:23:57;;;;;;;15.87;4.33;;;11.50;99.90;;;;;;5055504;28;20688;-75
2023/01/11 09:26:24;;;;;;;17.63;4.00;;;11.50;99.90;;;;;;5053233;28;20298;-75
2023/01/11 09:28:51;;;;;;;17.93;4.27;;;11.50;99.90;;;;;;5054104;28;20225;-75
2023/01/11 09:31:18;;;;;;;16.87;4.37;;;11.40;99.90;;;;;;5052145;28;20204;-75
2023/01/11 09:33:45;;;;;;;14.70;3.67;;;11.40;99.90;;;;;;5029012;28;20201;-75
2023/01/11 09:36:13;;;;;;;11.10;3.60;;;11.40;99.90;;;;;;5050656;28;20227;-75
2023/01/11 09:38:42;;;;;;;13.43;4.30;;;11.40;99.90;;;;;;5046380;28;20796;-75
2023/01/11 09:41:25;;;;;;;13.70;4.00;;;11.40;99.90;;;;;;5048913;28;20208;-76
2023/01/11 09:43:56;;;;;;;17.57;5.00;;;11.50;99.90;;;;;;5021910;28;20620;-75
2023/01/11 09:46:24;;;;;;;15.37;4.23;;;11.50;99.90;;;;;;5040812;28;20266;-75
2023/01/11 09:48:54;;;;;;;18.80;4.47;;;11.50;99.90;;;;;;5053919;28;20424;-79
2023/01/11 09:51:23;;;;;;;13.70;3.67;;;11.50;99.90;;;;;;5030850;28;20673;-75
2023/01/11 09:53:53;;;;;;;16.90;3.60;;;11.50;99.90;;;;;;5045222;28;20691;-74
2023/01/11 09:56:24;;;;;;;14.17;4.80;;;11.50;99.90;;;;;;5048418;28;20236;-75
2023/01/11 09:58:59;;;;;;;17.33;4.07;;;11.50;99.90;;;;;;5044317;28;20476;-75
2023/01/11 10:01:37;;;;;;;17.57;5.13;;;11.50;99.90;;;;;;5037688;28;20212;-76
2023/01/11 10:04:51;;;;;;;15.80;4.13;;;11.50;99.90;;;;;;5036192;28;20549;-76
2023/01/11 10:07:33;;;;;;;15.00;3.83;;;11.40;99.90;;;;;;5011286;28;20603;-75
2023/01/11 10:10:10;;;;;;;19.27;4.30;;;11.40;99.90;;;;;;5039309;28;20209;-75
2023/01/11 10:12:44;;;;;;;16.57;4.30;;;11.50;99.90;;;;;;5039800;28;20212;-75
2023/01/11 10:15:19;;;;;;;13.73;4.17;;;11.50;99.90;;;;;;5034510;28;20585;-75
2023/01/11 10:17:55;;;;;;;18.73;4.97;;;11.40;99.90;;;;;;5038256;28;20232;-75
2023/01/11 10:20:27;;;;;;;22.20;5.40;;;11.50;99.90;;;;;;5037416;28;20209;-74
2023/01/11 10:23:03;;;;;;;20.07;5.20;;;11.50;99.90;;;;;;5020256;28;20229;-74
2023/01/11 10:25:40;;;;;;;11.00;3.73;;;11.60;99.90;;;;;;5025208;28;20205;-75
2023/01/11 10:28:16;;;;;;;24.23;5.20;;;11.60;99.90;;;;;;5039212;28;20302;-75
2023/01/11 10:31:05;;;;;;;25.00;4.97;;;11.60;99.90;;;;;;5040186;28;21259;-75
2023/01/11 10:34:08;;;;;;;12.60;3.77;;;11.60;99.90;;;;;;5037181;28;20205;-75
2023/01/11 10:37:09;;;;;;;21.63;4.67;;;11.70;99.90;;;;;;5036325;28;20209;-75
2023/01/11 10:39:58;;;;;;;15.93;4.03;;;11.70;99.90;;;;;;5041491;28;20242;-75
2023/01/11 10:42:29;;;;;;;16.10;4.33;;;11.70;99.90;;;;;;5048097;28;20229;-75
2023/01/11 10:45:02;;;;;;;23.83;4.23;;;11.70;99.90;;;;;;5017339;28;20981;-75
2023/01/11 10:47:42;;;;;;;14.23;3.70;;;11.70;99.90;;;;;;5034678;28;20225;-74
2023/01/11 10:50:19;;;;;;;16.40;4.30;;;11.70;99.90;;;;;;5034818;28;20219;-75
2023/01/11 10:52:52;;;;;;;15.83;4.40;;;11.70;99.90;;;;;;5035245;28;20201;-75
2023/01/11 10:55:27;;;;;;;17.97;3.90;;;11.70;99.90;;;;;;5035775;28;20264;-75
2023/01/11 10:58:07;;;;;;;12.07;3.43;;;11.80;99.90;;;;;;5031607;28;20486;-74
2023/01/11 11:00:40;;;;;;;17.43;4.97;;;11.90;99.90;;;;;;5029819;28;20310;-75
2023/01/11 11:03:43;;;;;;;18.93;4.90;;;11.90;99.90;;;;;;5013574;28;20722;-75
2023/01/11 11:06:19;;;;;;;10.27;3.50;;;12.00;99.90;;;;;;5038816;28;20236;-75
2023/01/11 11:08:53;;;;;;;18.43;4.57;;;12.30;99.90;;;;;;5017083;28;20882;-75
2023/01/11 11:11:30;;;;;;;14.50;4.37;;;12.50;99.90;;;;;;5030976;28;20214;-75
2023/01/11 11:14:03;;;;;;;18.10;4.87;;;12.80;99.90;;;;;;5031640;28;20201;-75
2023/01/11 11:19:15;;;;;;;14.93;4.70;;;13.10;99.90;;;;;;5401297;22;20318;-75
2023/01/11 11:21:43;;;;;;;24.17;6.23;;;13.30;99.90;;;;;;5045303;28;20224;-76
2023/01/11 11:24:19;;;;;;;19.50;4.63;;;13.30;99.90;;;;;;5038263;28;20847;-73
2023/01/11 11:26:53;;;;;;;16.70;5.17;;;13.20;99.90;;;;;;5055287;28;20215;-76
2023/01/11 11:29:29;;;;;;;15.13;4.53;;;13.20;99.90;;;;;;5047526;28;20201;-73
2023/01/11 11:31:58;;;;;;;16.17;5.47;;;13.10;99.90;;;;;;5049945;28;20319;-75
2023/01/11 11:34:26;;;;;;;12.93;4.27;;;13.00;99.90;;;;;;5053976;28;20201;-76
2023/01/11 11:36:54;;;;;;;23.30;5.63;;;13.00;99.90;;;;;;5052002;28;20249;-76
2023/01/11 11:39:26;;;;;;;22.97;6.07;;;12.90;99.90;;;;;;5054354;28;20197;-76
2023/01/11 11:41:56;;;;;;;16.30;3.73;;;12.80;99.90;;;;;;5027580;28;20669;-76
2023/01/11 11:44:26;;;;;;;13.90;4.40;;;12.90;99.90;;;;;;5044263;28;20363;-76
2023/01/11 11:46:57;;;;;;;20.17;6.40;;;12.80;99.90;;;;;;5035780;28;20225;-76
2023/01/11 11:49:24;;;;;;;19.63;5.10;;;12.80;99.90;;;;;;5045198;28;20201;-75
2023/01/11 11:51:52;;;;;;;18.37;5.77;;;12.80;99.90;;;;;;5047547;28;20205;-75
2023/01/11 11:54:22;;;;;;;13.43;3.77;;;12.80;99.90;;;;;;5053734;28;20210;-75
2023/01/11 11:56:50;;;;;;;16.57;5.03;;;12.90;99.90;;;;;;5048654;28;21584;-75
2023/01/11 11:59:19;;;;;;;12.67;4.10;;;15.20;99.90;;;;;;5033498;28;20208;-74
2023/01/11 12:01:55;;;;;;;16.53;5.30;;;12.80;99.90;;;;;;5043852;28;20217;-75
2023/01/11 12:04:30;;;;;;;16.20;4.80;;;12.70;99.90;;;;;;5015472;28;20432;-76
2023/01/11 12:07:07;;;;;;;16.50;5.27;;;12.70;99.90;;;;;;5042303;28;20227;-76
2023/01/11 12:09:35;;;;;;;10.30;4.57;;;12.90;99.90;;;;;;5050634;28;20227;-76
2023/01/11 12:12:03;;;;;;;16.23;4.83;;;13.20;99.90;;;;;;5044831;28;20340;-76
2023/01/11 12:14:33;;;;;;;14.77;4.93;;;13.50;99.90;;;;;;5035662;28;20205;-76
2023/01/11 12:17:21;;;;;;;19.03;5.60;;;13.70;99.90;;;;;;5038883;28;20337;-75
2023/01/11 12:19:48;;;;;;;18.93;4.73;;;14.00;99.90;;;;;;5044263;28;20215;-74
2023/01/11 12:22:18;;;;;;;16.37;4.47;;;14.20;99.90;;;;;;5045636;28;20849;-75
2023/01/11 12:24:45;;;;;;;19.50;5.70;;;14.40;99.90;;;;;;5038452;28;20230;-75
2023/01/11 12:27:24;;;;;;;16.80;5.03;;;14.60;99.90;;;;;;5039486;28;20225;-75
2023/01/11 12:30:08;;;;;;;24.43;6.83;;;14.70;99.90;;;;;;5024146;28;20214;-75
2023/01/11 12:33:07;;;;;;;19.77;5.37;;;14.90;99.90;;;;;;5051469;28;20211;-75
2023/01/11 12:35:40;;;;;;;17.43;4.57;;;14.80;99.90;;;;;;5028711;28;20222;-74
2023/01/11 12:38:29;;;;;;;13.70;4.40;;;14.70;99.90;;;;;;5050316;28;20614;-74
2023/01/11 12:41:42;;;;;;;19.83;4.67;;;14.60;99.90;;;;;;5047465;28;20205;-74
2023/01/11 12:44:15;;;;;;;16.40;4.60;;;14.40;99.90;;;;;;5038657;28;20622;-75
2023/01/11 12:46:55;;;;;;;23.33;5.20;;;14.20;99.90;;;;;;5020265;28;20325;-74
2023/01/11 12:49:40;;;;;;;16.57;4.60;;;14.10;99.90;;;;;;5043175;28;20221;-74
2023/01/11 12:52:36;;;;;;;14.63;4.73;;;14.00;99.90;;;;;;5040677;28;20217;-75
2023/01/11 12:55:29;;;;;;;16.97;4.97;;;13.90;99.90;;;;;;5047444;28;20218;-74
2023/01/11 12:58:04;;;;;;;14.03;4.13;;;13.90;99.90;;;;;;5041237;28;20356;-75
2023/01/11 13:00:58;;;;;;;15.03;4.30;;;13.80;99.90;;;;;;5024739;28;20316;-75
2023/01/11 13:04:04;;;;;;;19.67;5.03;;;13.80;99.90;;;;;;5043104;28;20235;-76
2023/01/11 13:06:39;;;;;;;21.07;5.97;;;13.70;99.90;;;;;;5040771;28;20300;-75
2023/01/11 13:09:19;;;;;;;26.47;5.87;;;13.70;99.90;;;;;;5043186;28;20564;-75
2023/01/11 13:11:54;;;;;;;19.37;5.40;;;13.80;99.90;;;;;;5044596;28;20198;-76
2023/01/11 13:14:47;;;;;;;19.17;4.57;;;13.80;99.90;;;;;;5045364;28;20201;-75
2023/01/11 13:17:25;;;;;;;22.77;4.83;;;13.80;99.90;;;;;;5044087;28;20233;-76
2023/01/11 13:20:03;;;;;;;18.57;5.30;;;13.80;99.90;;;;;;5036328;28;20230;-76
2023/01/11 13:22:37;;;;;;;26.40;5.23;;;13.80;99.90;;;;;;5036291;28;20212;-75
2023/01/11 13:25:14;;;;;;;17.10;5.03;;;13.90;99.90;;;;;;5033334;28;20241;-76
2023/01/11 13:27:43;;;;;;;18.43;5.57;;;13.80;99.90;;;;;;5036966;28;20233;-75
2023/01/11 13:30:12;;;;;;;23.43;5.13;;;13.80;99.90;;;;;;5020092;28;20691;-75
2023/01/11 13:32:44;;;;;;;17.60;4.67;;;13.70;99.90;;;;;;5040613;28;20295;-75
2023/01/11 13:35:17;;;;;;;19.60;5.33;;;13.60;99.90;;;;;;5045530;28;20205;-76